Time,TemperatureF,DewpointF,PressureIn,WindDirection,WindDirectionDegrees,WindSpeedMPH,WindSpeedGustMPH,Humidity,HourlyPrecipIn,Conditions,Clouds,dailyrainin,SolarRadiationWatts/m^2,SoftwareType,DateUTC
2013-06-10 00:00:00,73.0,61.0,-100.00,ESE,112,5.0,-999.0,66,-99.99,,,-99.99,0.000000,,2013-06-10 04:00:00,
2013-06-10 00:33:00,73.0,61.0,-100.00,ESE,112,5.0,-999.0,66,-99.99,,,-99.99,0.000000,,2013-06-10 04:33:00,
2013-06-10 00:42:00,73.0,61.0,-100.00,ESE,112,5.0,-999.0,66,-99.99,,,-99.99,0.000000,,2013-06-10 04:42:00,
2013-06-10 00:53:00,73.0,61.0,-100.00,ESE,112,5.0,-999.0,66,-99.99,,,-99.99,0.000000,,2013-06-10 04:53:00,
2013-06-10 01:00:00,72.0,61.0,-100.00,SE,135,5.0,-999.0,68,-99.99,,,-99.99,0.000000,,2013-06-10 05:00:00,
2013-06-10 01:32:00,72.0,61.0,-100.00,SE,135,5.0,-999.0,68,-99.99,,,-99.99,0.000000,,2013-06-10 05:32:00,
2013-06-10 01:42:00,72.0,61.0,-100.00,SE,135,5.0,-999.0,68,-99.99,,,-99.99,0.000000,,2013-06-10 05:42:00,
2013-06-10 01:52:00,72.0,61.0,-100.00,SE,135,5.0,-999.0,68,-99.99,,,-99.99,0.000000,,2013-06-10 05:52:00,
2013-06-10 02:00:00,67.0,64.0,-100.00,SE,135,5.0,-999.0,91,0.02,,,-99.99,0.000000,,2013-06-10 06:00:00,
2013-06-10 02:32:00,67.0,64.0,-100.00,SE,135,5.0,-999.0,91,0.02,,,-99.99,0.000000,,2013-06-10 06:32:00,
2013-06-10 02:42:00,67.0,64.0,-100.00,SE,135,5.0,-999.0,91,0.02,,,-99.99,0.000000,,2013-06-10 06:42:00,
2013-06-10 02:53:00,67.0,64.0,-100.00,SE,135,5.0,-999.0,91,0.02,,,-99.99,0.000000,,2013-06-10 06:53:00,
2013-06-10 04:00:00,65.0,65.0,-100.00,ENE,67,2.0,-999.0,101,0.06,,,-99.99,0.000000,,2013-06-10 08:00:00,
2013-06-10 04:32:00,65.0,65.0,-100.00,ENE,67,2.0,-999.0,101,0.06,,,-99.99,0.000000,,2013-06-10 08:32:00,
2013-06-10 04:42:00,65.0,65.0,-100.00,ENE,67,2.0,-999.0,101,0.06,,,-99.99,0.000000,,2013-06-10 08:42:00,
2013-06-10 04:52:00,65.0,65.0,-100.00,ENE,67,2.0,-999.0,101,0.06,,,-99.99,0.000000,,2013-06-10 08:52:00,
2013-06-10 06:00:00,65.0,65.0,-100.00,East,90,3.0,-999.0,102,-99.99,,,-99.99,0.000000,,2013-06-10 10:00:00,
2013-06-10 06:33:00,65.0,65.0,-100.00,East,90,3.0,-999.0,102,-99.99,,,-99.99,0.000000,,2013-06-10 10:33:00,
2013-06-10 06:42:00,65.0,65.0,-100.00,East,90,3.0,-999.0,102,-99.99,,,-99.99,0.000000,,2013-06-10 10:42:00,
2013-06-10 06:52:00,65.0,65.0,-100.00,East,90,3.0,-999.0,102,-99.99,,,-99.99,0.000000,,2013-06-10 10:52:00,
2013-06-10 08:00:00,66.0,66.0,-100.00,East,90,3.0,-999.0,102,0.02,,,-99.99,40.599998,,2013-06-10 12:00:00,
2013-06-10 08:32:00,66.0,66.0,-100.00,East,90,3.0,-999.0,102,0.02,,,-99.99,40.599998,,2013-06-10 12:32:00,
2013-06-10 08:42:00,66.0,66.0,-100.00,East,90,3.0,-999.0,102,0.02,,,-99.99,40.599998,,2013-06-10 12:42:00,
2013-06-10 08:52:00,66.0,66.0,-100.00,East,90,3.0,-999.0,102,0.02,,,-99.99,40.599998,,2013-06-10 12:52:00,
2013-06-10 09:00:00,66.0,66.0,-100.00,ESE,112,1.0,-999.0,102,0.02,,,-99.99,58.000000,,2013-06-10 13:00:00,
2013-06-10 09:32:00,66.0,66.0,-100.00,ESE,112,1.0,-999.0,102,0.02,,,-99.99,58.000000,,2013-06-10 13:32:00,
2013-06-10 09:42:00,66.0,66.0,-100.00,ESE,112,1.0,-999.0,102,0.02,,,-99.99,58.000000,,2013-06-10 13:42:00,
2013-06-10 09:52:00,66.0,66.0,-100.00,ESE,112,1.0,-999.0,102,0.02,,,-99.99,58.000000,,2013-06-10 13:52:00,
2013-06-10 12:00:00,68.0,67.0,-100.00,WSW,247,3.0,-999.0,97,0.01,,,-99.99,165.880005,,2013-06-10 16:00:00,
2013-06-10 12:33:00,68.0,67.0,-100.00,WSW,247,3.0,-999.0,97,0.01,,,-99.99,165.880005,,2013-06-10 16:33:00,
2013-06-10 12:43:00,68.0,67.0,-100.00,WSW,247,3.0,-999.0,97,0.01,,,-99.99,165.880005,,2013-06-10 16:43:00,
2013-06-10 12:53:00,68.0,67.0,-100.00,WSW,247,3.0,-999.0,97,0.01,,,-99.99,165.880005,,2013-06-10 16:53:00,
2013-06-10 14:00:00,70.0,67.0,-100.00,WNW,292,6.0,-999.0,90,-99.99,,,-99.99,284.200012,,2013-06-10 18:00:00,
2013-06-10 14:35:00,70.0,67.0,-100.00,WNW,292,6.0,-999.0,90,-99.99,,,-99.99,284.200012,,2013-06-10 18:35:00,
2013-06-10 14:48:00,70.0,67.0,-100.00,WNW,292,6.0,-999.0,90,-99.99,,,-99.99,284.200012,,2013-06-10 18:48:00,
2013-06-10 14:55:00,70.0,67.0,-100.00,WNW,292,6.0,-999.0,90,-99.99,,,-99.99,284.200012,,2013-06-10 18:55:00,
2013-06-10 15:00:00,70.0,66.0,-100.00,WNW,292,5.0,-999.0,88,-99.99,,,-99.99,313.200012,,2013-06-10 19:00:00,
2013-06-10 15:33:00,70.0,66.0,-100.00,WNW,292,5.0,-999.0,88,-99.99,,,-99.99,313.200012,,2013-06-10 19:33:00,
2013-06-10 15:43:00,70.0,66.0,-100.00,WNW,292,5.0,-999.0,88,-99.99,,,-99.99,313.200012,,2013-06-10 19:43:00,
2013-06-10 15:53:00,70.0,66.0,-100.00,WNW,292,5.0,-999.0,88,-99.99,,,-99.99,313.200012,,2013-06-10 19:53:00,
2013-06-10 16:00:00,69.0,66.0,-100.00,WNW,292,7.0,-999.0,90,-99.99,,,-99.99,356.119995,,2013-06-10 20:00:00,
2013-06-10 16:32:00,69.0,66.0,-100.00,WNW,292,7.0,-999.0,90,-99.99,,,-99.99,356.119995,,2013-06-10 20:32:00,
2013-06-10 16:43:00,69.0,66.0,-100.00,WNW,292,7.0,-999.0,90,-99.99,,,-99.99,356.119995,,2013-06-10 20:43:00,
2013-06-10 16:53:00,69.0,66.0,-100.00,WNW,292,7.0,-999.0,90,-99.99,,,-99.99,356.119995,,2013-06-10 20:53:00,
2013-06-10 17:00:00,71.0,66.0,-100.00,NW,315,8.0,-999.0,85,-99.99,,,-99.99,508.079987,,2013-06-10 21:00:00,
2013-06-10 17:34:00,71.0,66.0,-100.00,NW,315,8.0,-999.0,85,-99.99,,,-99.99,508.079987,,2013-06-10 21:34:00,
2013-06-10 17:43:00,71.0,66.0,-100.00,NW,315,8.0,-999.0,85,-99.99,,,-99.99,508.079987,,2013-06-10 21:43:00,
2013-06-10 17:53:00,71.0,66.0,-100.00,NW,315,8.0,-999.0,85,-99.99,,,-99.99,508.079987,,2013-06-10 21:53:00,
2013-06-10 18:00:00,69.0,65.0,-100.00,NW,315,9.0,-999.0,88,-99.99,,,-99.99,273.760010,,2013-06-10 22:00:00,
2013-06-10 18:33:00,69.0,65.0,-100.00,NW,315,9.0,-999.0,88,-99.99,,,-99.99,273.760010,,2013-06-10 22:33:00,
2013-06-10 18:42:00,69.0,65.0,-100.00,NW,315,9.0,-999.0,88,-99.99,,,-99.99,273.760010,,2013-06-10 22:42:00,
2013-06-10 18:52:00,69.0,65.0,-100.00,NW,315,9.0,-999.0,88,-99.99,,,-99.99,273.760010,,2013-06-10 22:52:00,
2013-06-10 20:00:00,64.0,63.0,-100.00,NW,315,6.0,-999.0,97,-99.99,,,-99.99,60.320000,,2013-06-11 00:00:00,
2013-06-10 20:32:00,64.0,63.0,-100.00,NW,315,6.0,-999.0,97,-99.99,,,-99.99,60.320000,,2013-06-11 00:32:00,
2013-06-10 20:43:00,64.0,63.0,-100.00,NW,315,6.0,-999.0,97,-99.99,,,-99.99,60.320000,,2013-06-11 00:43:00,
2013-06-10 20:52:00,64.0,63.0,-100.00,NW,315,6.0,-999.0,97,-99.99,,,-99.99,60.320000,,2013-06-11 00:52:00,
2013-06-10 22:00:00,62.0,61.0,-100.00,WNW,292,3.0,-999.0,99,-99.99,,,-99.99,1.160000,,2013-06-11 02:00:00,
2013-06-10 22:32:00,62.0,61.0,-100.00,WNW,292,3.0,-999.0,99,-99.99,,,-99.99,1.160000,,2013-06-11 02:32:00,
2013-06-10 22:43:00,62.0,61.0,-100.00,WNW,292,3.0,-999.0,99,-99.99,,,-99.99,1.160000,,2013-06-11 02:43:00,
2013-06-10 22:52:00,62.0,61.0,-100.00,WNW,292,3.0,-999.0,99,-99.99,,,-99.99,1.160000,,2013-06-11 02:52:00,
2013-06-10 23:00:00,60.0,60.0,-100.00,WNW,292,2.0,-999.0,99,-99.99,,,-99.99,0.000000,,2013-06-11 03:00:00,
2013-06-10 23:33:00,60.0,60.0,-100.00,WNW,292,2.0,-999.0,99,-99.99,,,-99.99,0.000000,,2013-06-11 03:33:00,
2013-06-10 23:43:00,60.0,60.0,-100.00,WNW,292,2.0,-999.0,99,-99.99,,,-99.99,0.000000,,2013-06-11 03:43:00,
2013-06-10 23:53:00,60.0,60.0,-100.00,WNW,292,2.0,-999.0,99,-99.99,,,-99.99,0.000000,,2013-06-11 03:53:00,